createdAt,value
2018-08-06T00:00:25.858Z,100250.84
2018-08-06T00:02:54.418Z,100258.93
2018-08-06T00:05:23.036Z,100258.26
2018-08-06T00:07:51.763Z,100252.98
2018-08-06T00:10:22.048Z,100246.48
2018-08-06T00:12:50.706Z,100244.27
2018-08-06T00:15:19.615Z,100236.50
2018-08-06T00:17:48.199Z,100240.12
2018-08-06T00:20:17.495Z,100234.95
2018-08-06T00:22:46.248Z,100234.95
2018-08-06T00:25:16.054Z,100238.56
2018-08-06T00:27:44.958Z,100228.34
2018-08-06T00:30:14.695Z,100229.36
2018-08-06T00:32:44.148Z,100225.91
2018-08-06T00:35:13.258Z,100220.26
2018-08-06T00:37:41.874Z,100221.59
2018-08-06T00:40:13.093Z,100216.81
2018-08-06T00:42:42.263Z,100217.76
2018-08-06T00:45:12.485Z,100215.16
2018-08-06T00:47:40.984Z,100217.38
2018-08-06T00:50:09.860Z,100215.26
2018-08-06T00:52:38.870Z,100216.66
2018-08-06T00:55:09.982Z,100210.06
2018-08-06T00:57:38.692Z,100200.37
2018-08-06T01:00:09.247Z,100195.91
2018-08-06T01:02:37.858Z,100191.97
2018-08-06T01:05:07.636Z,100185.47
2018-08-06T01:07:36.517Z,100186.20
2018-08-06T01:10:07.002Z,100182.82
2018-08-06T01:12:36.576Z,100181.34
2018-08-06T01:15:06.224Z,100184.64
2018-08-06T01:17:35.172Z,100182.59
2018-08-06T01:20:04.993Z,100175.84
2018-08-06T01:22:33.745Z,100169.41
2018-08-06T01:25:02.596Z,100167.30
2018-08-06T01:27:31.681Z,100166.27
2018-08-06T01:30:00.708Z,100170.98
2018-08-06T01:32:29.651Z,100167.11
2018-08-06T01:34:58.610Z,100179.73
2018-08-06T01:37:27.577Z,100177.73
2018-08-06T01:39:56.485Z,100179.67
2018-08-06T01:42:25.899Z,100179.81
2018-08-06T01:44:54.714Z,100175.97
2018-08-06T01:47:24.011Z,100165.89
2018-08-06T01:49:52.541Z,100164.23
2018-08-06T01:52:21.849Z,100165.67
2018-08-06T01:54:50.872Z,100161.50
2018-08-06T01:57:20.601Z,100160.92
2018-08-06T01:59:49.860Z,100159.97
2018-08-06T02:02:19.111Z,100153.86
2018-08-06T02:04:48.042Z,100157.92
2018-08-06T02:07:17.091Z,100153.14
2018-08-06T02:09:46.069Z,100154.14
2018-08-06T02:12:14.975Z,100146.25
2018-08-06T02:14:43.633Z,100143.26
2018-08-06T02:17:12.287Z,100151.41
2018-08-06T02:19:40.997Z,100145.48
2018-08-06T02:22:09.662Z,100143.53
2018-08-06T02:24:38.297Z,100139.66
2018-08-06T02:27:07.061Z,100138.97
2018-08-06T02:29:35.646Z,100131.98
2018-08-06T02:32:04.272Z,100132.83
2018-08-06T02:34:32.898Z,100132.92
2018-08-06T02:37:01.508Z,100129.87
2018-08-06T02:39:30.102Z,100127.94
2018-08-06T02:41:58.737Z,100123.73
2018-08-06T02:44:27.268Z,100121.77
2018-08-06T02:46:55.938Z,100122.38
2018-08-06T02:49:24.602Z,100120.33
2018-08-06T02:51:53.216Z,100124.26
2018-08-06T02:54:21.889Z,100119.94
2018-08-06T02:56:51.127Z,100120.72
2018-08-06T02:59:19.755Z,100113.12
2018-08-06T03:01:48.408Z,100117.12
2018-08-06T03:04:17.067Z,100112.34
2018-08-06T03:06:45.757Z,100108.50
2018-08-06T03:09:14.343Z,100114.22
2018-08-06T03:11:43.098Z,100109.95
2018-08-06T03:14:11.795Z,100106.89
2018-08-06T03:16:40.638Z,100102.91
2018-08-06T03:19:09.156Z,100098.45
2018-08-06T03:21:37.707Z,100103.45
2018-08-06T03:24:06.288Z,100098.61
2018-08-06T03:26:35.006Z,100100.00
2018-08-06T03:29:03.591Z,100100.55
2018-08-06T03:31:32.233Z,100097.89
2018-08-06T03:34:00.853Z,100093.50
2018-08-06T03:36:29.481Z,100087.75
2018-08-06T03:38:58.119Z,100089.09
2018-08-06T03:41:26.909Z,100084.19
2018-08-06T03:43:55.732Z,100085.52
2018-08-06T03:46:24.373Z,100081.98
2018-08-06T03:48:52.957Z,100085.09
2018-08-06T03:51:21.577Z,100077.20
2018-08-06T03:53:50.256Z,100076.93
2018-08-06T03:56:20.733Z,100076.08
2018-08-06T03:58:50.541Z,100077.86
2018-08-06T04:01:19.225Z,100074.42
2018-08-06T04:03:47.900Z,100072.21
2018-08-06T04:06:16.896Z,100066.89
2018-08-06T04:08:45.508Z,100072.64
2018-08-06T04:11:14.159Z,100071.76
2018-08-06T04:13:43.493Z,100069.16
2018-08-06T04:16:12.196Z,100067.44
2018-08-06T04:18:40.812Z,100066.50
2018-08-06T04:21:09.377Z,100070.88
2018-08-06T04:23:38.012Z,100063.32
2018-08-06T04:26:06.702Z,100073.42
2018-08-06T04:28:35.280Z,100069.82
2018-08-06T04:31:03.939Z,100068.43
2018-08-06T04:33:32.651Z,100075.78
2018-08-06T04:36:01.380Z,100069.94
2018-08-06T04:38:30.239Z,100068.06
2018-08-06T04:40:58.924Z,100068.91
2018-08-06T04:43:27.612Z,100068.84
2018-08-06T04:45:56.239Z,100067.13
2018-08-06T04:48:25.835Z,100066.18
2018-08-06T04:50:54.538Z,100067.13
2018-08-06T04:53:23.214Z,100060.08
2018-08-06T04:55:51.895Z,100058.98
2018-08-06T04:58:20.619Z,100063.36
2018-08-06T05:00:49.306Z,100066.30
2018-08-06T05:03:17.956Z,100059.03
2018-08-06T05:05:46.616Z,100061.08
2018-08-06T05:08:15.524Z,100057.77
2018-08-06T05:10:44.272Z,100051.34
2018-08-06T05:13:13.085Z,100051.19
2018-08-06T05:15:41.978Z,100055.42
2018-08-06T05:18:10.679Z,100061.39
2018-08-06T05:20:39.525Z,100055.13
2018-08-06T05:23:08.298Z,100062.83
2018-08-06T05:25:36.996Z,100062.50
2018-08-06T05:28:06.022Z,100060.81
2018-08-06T05:30:34.739Z,100064.03
2018-08-06T05:33:03.384Z,100060.75
2018-08-06T05:35:32.010Z,100063.86
2018-08-06T05:38:00.660Z,100064.50
2018-08-06T05:40:29.485Z,100066.25
2018-08-06T05:42:58.112Z,100064.58
2018-08-06T05:45:26.737Z,100062.03
2018-08-06T05:47:55.341Z,100064.22
2018-08-06T05:50:24.029Z,100064.52
2018-08-06T05:52:52.932Z,100065.19
2018-08-06T05:55:21.501Z,100057.92
2018-08-06T05:57:50.223Z,100065.15
2018-08-06T06:00:19.463Z,100061.43
2018-08-06T06:02:48.289Z,100064.13
2018-08-06T06:05:16.989Z,100070.17
2018-08-06T06:07:45.745Z,100067.39
2018-08-06T06:10:15.667Z,100077.22
2018-08-06T06:12:44.285Z,100061.45
2018-08-06T06:15:14.553Z,100062.53
2018-08-06T06:17:44.050Z,100067.28
2018-08-06T06:20:12.694Z,100067.93
2018-08-06T06:22:41.362Z,100073.55
2018-08-06T06:25:11.715Z,100067.06
2018-08-06T06:27:40.406Z,100064.49
2018-08-06T06:30:11.698Z,100057.67
2018-08-06T06:32:40.476Z,100057.11
2018-08-06T06:35:09.112Z,100060.55
2018-08-06T06:37:37.899Z,100054.83
2018-08-06T06:40:06.730Z,100052.11
2018-08-06T06:42:35.380Z,100053.91
2018-08-06T06:45:04.735Z,100068.38
2018-08-06T06:47:33.454Z,100059.61
2018-08-06T06:50:02.052Z,100057.95
2018-08-06T06:52:30.824Z,100058.51
2018-08-06T06:54:59.485Z,100057.36
2018-08-06T06:57:28.212Z,100055.55
2018-08-06T06:59:57.032Z,100056.03
2018-08-06T07:02:28.449Z,100051.91
2018-08-06T07:04:57.400Z,100052.45
2018-08-06T07:07:26.793Z,100053.60
2018-08-06T07:09:55.638Z,100048.94
2018-08-06T07:12:25.285Z,100051.66
2018-08-06T07:14:53.989Z,100046.19
2018-08-06T07:17:22.616Z,100050.48
2018-08-06T07:19:51.274Z,100049.98
2018-08-06T07:22:19.876Z,100045.99
2018-08-06T07:24:48.766Z,100041.94
2018-08-06T07:27:17.623Z,100045.87
2018-08-06T07:29:46.248Z,100045.53
2018-08-06T07:32:14.863Z,100039.49
2018-08-06T07:34:43.471Z,100046.06
2018-08-06T07:37:12.095Z,100038.68
2018-08-06T07:39:40.716Z,100037.72
2018-08-06T07:42:12.433Z,100039.28
2018-08-06T07:44:40.978Z,100035.52
2018-08-06T07:47:09.504Z,100031.52
2018-08-06T07:49:38.394Z,100022.40
2018-08-06T07:52:07.037Z,100010.06
2018-08-06T07:54:35.674Z,100015.45
2018-08-06T07:57:04.362Z,100017.91
2018-08-06T07:59:32.969Z,100008.82
2018-08-06T08:02:01.590Z,99992.58
2018-08-06T08:04:30.303Z,99992.98
2018-08-06T08:06:58.891Z,99991.41
2018-08-06T08:09:27.566Z,99993.39
2018-08-06T08:11:56.301Z,99993.27
2018-08-06T08:14:25.212Z,99988.58
2018-08-06T08:16:53.808Z,99986.59
2018-08-06T08:19:22.538Z,99982.22
2018-08-06T08:21:51.223Z,99979.80
2018-08-06T08:24:19.838Z,99988.19
2018-08-06T08:26:48.499Z,99976.64
2018-08-06T08:29:17.152Z,99974.55
2018-08-06T08:31:45.785Z,99970.75
2018-08-06T08:34:14.598Z,99961.77
2018-08-06T08:36:43.193Z,99964.07
2018-08-06T08:39:12.874Z,99973.45
2018-08-06T08:41:41.604Z,99975.56
2018-08-06T08:44:10.180Z,99974.26
2018-08-06T08:46:38.661Z,99969.59
2018-08-06T08:49:07.203Z,99969.43
2018-08-06T08:51:35.854Z,99974.50
2018-08-06T08:54:04.441Z,99979.45
2018-08-06T08:56:33.025Z,99969.25
2018-08-06T08:59:01.597Z,99955.16
2018-08-06T09:01:30.148Z,99957.75
2018-08-06T09:03:58.712Z,99955.34
2018-08-06T09:06:27.288Z,99959.98
2018-08-06T09:08:56.017Z,99952.66
2018-08-06T09:11:26.876Z,99941.64
2018-08-06T09:13:58.167Z,99935.17
2018-08-06T09:16:27.054Z,99942.73
2018-08-06T09:18:55.645Z,99964.33
2018-08-06T09:21:24.288Z,99945.70
2018-08-06T09:23:52.867Z,99937.59
2018-08-06T09:26:21.629Z,99932.00
2018-08-06T09:28:50.231Z,99938.46
2018-08-06T09:31:19.038Z,99939.68
2018-08-06T09:34:08.752Z,99941.52
2018-08-06T09:36:42.316Z,99942.42
2018-08-06T09:39:30.202Z,99939.22
2018-08-06T09:45:03.817Z,99922.50
2018-08-06T09:47:41.110Z,99918.98
2018-08-06T09:50:11.767Z,99922.49
2018-08-06T09:52:40.768Z,99917.40
2018-08-06T09:55:12.720Z,99905.42
2018-08-06T09:57:41.876Z,99902.81
2018-08-06T10:00:18.513Z,99903.38
2018-08-06T10:02:47.567Z,99887.70
2018-08-06T10:05:16.232Z,99901.47
2018-08-06T10:07:45.363Z,99891.05
2018-08-06T10:10:14.352Z,99880.30
2018-08-06T10:12:43.720Z,99886.67
2018-08-06T10:15:12.780Z,99878.70
2018-08-06T10:17:42.976Z,99891.09
2018-08-06T10:20:13.560Z,99879.71
2018-08-06T10:22:42.155Z,99883.45
2018-08-06T10:25:12.108Z,99862.20
2018-08-06T10:27:41.650Z,99867.53
2018-08-06T10:30:14.268Z,99870.09
2018-08-06T10:32:42.946Z,99866.80
2018-08-06T10:35:12.586Z,99861.98
2018-08-06T10:37:41.185Z,99853.33
2018-08-06T10:40:13.485Z,99848.42
2018-08-06T10:42:42.655Z,99858.64
2018-08-06T10:45:13.490Z,99848.61
2018-08-06T10:47:42.380Z,99852.05
2018-08-06T10:50:11.067Z,99836.87
2018-08-06T10:52:39.826Z,99834.60
2018-08-06T10:55:09.302Z,99832.56
2018-08-06T10:57:38.472Z,99831.36
2018-08-06T11:00:11.912Z,99830.69
2018-08-06T11:02:40.607Z,99826.69
2018-08-06T11:05:10.344Z,99828.77
2018-08-06T11:07:39.128Z,99829.75
2018-08-06T11:10:10.657Z,99829.59
2018-08-06T11:12:39.666Z,99816.64
2018-08-06T11:15:12.917Z,99818.97
2018-08-06T11:17:41.529Z,99809.34
2018-08-06T11:20:11.868Z,99800.05
2018-08-06T11:22:40.932Z,99811.66
2018-08-06T11:25:11.035Z,99800.83
2018-08-06T11:27:39.630Z,99797.12
2018-08-06T11:30:09.981Z,99791.30
2018-08-06T11:32:40.867Z,99783.00
2018-08-06T11:35:14.165Z,99793.34
2018-08-06T11:37:43.278Z,99786.79
2018-08-06T11:40:20.135Z,99783.88
2018-08-06T11:42:53.569Z,99774.94
2018-08-06T11:45:29.516Z,99773.91
2018-08-06T11:48:07.318Z,99769.13
2018-08-06T11:50:37.625Z,99767.52
2018-08-06T11:53:23.298Z,99760.70
2018-08-06T11:55:52.274Z,99763.13
2018-08-06T11:58:20.880Z,99749.29
2018-08-06T12:00:49.497Z,99745.58
2018-08-06T12:03:18.094Z,99746.77
2018-08-06T12:05:46.753Z,99737.08
2018-08-06T12:08:15.387Z,99735.22
2018-08-06T12:10:44.966Z,99728.45
2018-08-06T12:13:13.593Z,99727.86
2018-08-06T12:15:42.138Z,99729.64
2018-08-06T12:18:10.709Z,99731.77
2018-08-06T12:20:39.267Z,99733.75
2018-08-06T12:23:07.884Z,99729.75
2018-08-06T12:25:36.454Z,99731.48
2018-08-06T12:28:05.052Z,99730.84
2018-08-06T12:30:33.624Z,99724.09
2018-08-06T12:33:02.276Z,99716.22
2018-08-06T12:35:31.076Z,99716.49
2018-08-06T12:37:59.673Z,99714.43
2018-08-06T12:40:28.245Z,99705.81
2018-08-06T12:42:56.837Z,99709.61
2018-08-06T12:45:25.472Z,99707.97
2018-08-06T12:47:54.108Z,99708.20
2018-08-06T12:50:22.727Z,99714.78
2018-08-06T12:52:51.328Z,99719.36
2018-08-06T12:55:19.884Z,99704.69
2018-08-06T12:57:48.614Z,99704.70
2018-08-06T13:00:20.570Z,99704.05
2018-08-06T13:02:49.680Z,99697.55
2018-08-06T13:05:18.844Z,99699.23
2018-08-06T13:07:47.451Z,99694.48
2018-08-06T13:10:16.128Z,99699.95
2018-08-06T13:12:44.903Z,99689.81
2018-08-06T13:15:14.512Z,99688.30
2018-08-06T13:17:43.088Z,99684.70
2018-08-06T13:20:11.652Z,99686.25
2018-08-06T13:22:40.387Z,99669.61
2018-08-06T13:25:10.449Z,99671.36
2018-08-06T13:27:39.050Z,99673.78
2018-08-06T13:30:12.188Z,99660.80
2018-08-06T13:32:41.042Z,99665.28
2018-08-06T13:35:09.669Z,99668.06
2018-08-06T13:37:38.429Z,99661.62
2018-08-06T13:40:07.693Z,99658.61
2018-08-06T13:42:36.460Z,99653.70
2018-08-06T13:45:06.766Z,99647.52
2018-08-06T13:47:35.320Z,99642.81
2018-08-06T13:50:03.985Z,99648.48
2018-08-06T13:52:32.616Z,99642.26
2018-08-06T13:55:01.204Z,99641.17
2018-08-06T13:57:29.847Z,99640.95
2018-08-06T13:59:58.549Z,99630.56
2018-08-06T14:02:27.151Z,99629.92
2018-08-06T14:04:55.677Z,99623.46
2018-08-06T14:07:24.326Z,99624.25
2018-08-06T14:09:52.985Z,99622.67
2018-08-06T14:12:21.607Z,99623.08
2018-08-06T14:14:50.207Z,99627.49
2018-08-06T14:17:18.773Z,99621.13
2018-08-06T14:19:47.316Z,99618.07
2018-08-06T14:22:15.864Z,99612.28
2018-08-06T14:24:44.459Z,99611.83
2018-08-06T14:27:13.105Z,99612.09
2018-08-06T14:29:41.666Z,99610.84
2018-08-06T14:32:10.247Z,99606.67
2018-08-06T14:34:38.889Z,99602.36
2018-08-06T14:37:07.717Z,99596.11
2018-08-06T14:39:36.254Z,99612.59
2018-08-06T14:42:04.818Z,99604.67
2018-08-06T14:44:33.455Z,99590.89
2018-08-06T14:47:02.095Z,99586.33
2018-08-06T14:49:30.698Z,99589.62
2018-08-06T14:51:59.463Z,99584.08
2018-08-06T14:54:28.120Z,99579.34
2018-08-06T14:56:56.714Z,99581.89
2018-08-06T14:59:25.396Z,99588.50
2018-08-06T15:01:53.995Z,99582.06
2018-08-06T15:04:22.543Z,99571.25
2018-08-06T15:06:51.226Z,99565.64
2018-08-06T15:09:19.868Z,99568.84
2018-08-06T15:11:48.604Z,99563.36
2018-08-06T15:14:17.283Z,99567.78
2018-08-06T15:16:45.868Z,99549.33
2018-08-06T15:19:14.519Z,99557.13
2018-08-06T15:21:43.206Z,99548.58
2018-08-06T15:24:11.905Z,99552.93
2018-08-06T15:26:40.466Z,99548.12
2018-08-06T15:29:09.140Z,99551.86
2018-08-06T15:31:37.777Z,99541.63
2018-08-06T15:34:06.381Z,99539.76
2018-08-06T15:36:35.060Z,99537.86
2018-08-06T15:39:04.026Z,99539.22
2018-08-06T15:41:32.597Z,99534.80
2018-08-06T15:44:01.210Z,99537.42
2018-08-06T15:46:29.862Z,99529.41
2018-08-06T15:48:58.657Z,99530.96
2018-08-06T15:51:27.328Z,99526.54
2018-08-06T15:53:55.973Z,99524.20
2018-08-06T15:56:24.572Z,99518.09
2018-08-06T15:58:53.177Z,99511.14
2018-08-06T16:01:22.245Z,99512.53
2018-08-06T16:03:53.300Z,99509.02
2018-08-06T16:06:22.181Z,99508.04
2018-08-06T16:08:50.748Z,99504.66
2018-08-06T16:11:19.260Z,99507.78
2018-08-06T16:13:47.841Z,99501.20
2018-08-06T16:16:16.463Z,99495.28
2018-08-06T16:18:45.024Z,99491.05
2018-08-06T16:21:13.558Z,99485.15
2018-08-06T16:23:42.233Z,99484.14
2018-08-06T16:26:10.768Z,99493.36
2018-08-06T16:28:39.501Z,99485.36
2018-08-06T16:31:08.169Z,99492.56
2018-08-06T16:33:36.710Z,99490.22
2018-08-06T16:36:05.308Z,99486.16
2018-08-06T16:38:34.034Z,99483.50
2018-08-06T16:41:02.662Z,99480.47
2018-08-06T16:43:31.336Z,99475.75
2018-08-06T16:46:00.013Z,99479.04
2018-08-06T16:48:28.729Z,99478.03
2018-08-06T16:50:57.346Z,99475.86
2018-08-06T16:53:25.928Z,99470.97
2018-08-06T16:55:54.490Z,99472.23
2018-08-06T16:58:23.149Z,99464.12
2018-08-06T17:00:51.766Z,99463.64
2018-08-06T17:03:20.344Z,99465.05
2018-08-06T17:05:48.892Z,99464.37
2018-08-06T17:08:17.533Z,99459.49
2018-08-06T17:10:46.125Z,99460.75
2018-08-06T17:13:14.766Z,99466.41
2018-08-06T17:15:43.291Z,99460.81
2018-08-06T17:18:11.852Z,99461.36
2018-08-06T17:20:40.638Z,99460.70
2018-08-06T17:23:09.199Z,99460.22
2018-08-06T17:25:37.838Z,99458.88
2018-08-06T17:28:06.447Z,99462.63
2018-08-06T17:30:35.184Z,99462.84
2018-08-06T17:33:03.810Z,99453.69
2018-08-06T17:35:32.541Z,99455.92
2018-08-06T17:38:01.189Z,99452.35
2018-08-06T17:40:29.838Z,99460.55
2018-08-06T17:42:58.515Z,99459.73
2018-08-06T17:45:27.283Z,99455.00
2018-08-06T17:47:55.856Z,99451.96
2018-08-06T17:50:24.573Z,99449.12
2018-08-06T17:52:53.608Z,99458.84
2018-08-06T17:55:23.110Z,99457.69
2018-08-06T17:57:51.777Z,99458.39
2018-08-06T18:00:20.831Z,99455.01
2018-08-06T18:02:49.435Z,99452.16
2018-08-06T18:05:19.672Z,99451.83
2018-08-06T18:07:48.359Z,99448.11
2018-08-06T18:10:17.841Z,99451.55
2018-08-06T18:12:47.308Z,99448.17
2018-08-06T18:15:16.310Z,99449.39
2018-08-06T18:17:45.126Z,99454.68
2018-08-06T18:20:16.533Z,99448.70
2018-08-06T18:22:45.439Z,99454.33
2018-08-06T18:25:15.989Z,99452.48
2018-08-06T18:27:45.752Z,99456.23
2018-08-06T18:30:16.249Z,99459.45
2018-08-06T18:32:45.038Z,99457.61
2018-08-06T18:35:15.057Z,99463.18
2018-08-06T18:37:44.017Z,99461.48
2018-08-06T18:40:13.614Z,99463.70
2018-08-06T18:42:42.492Z,99466.91
2018-08-06T18:45:16.380Z,99466.92
2018-08-06T18:47:46.031Z,99463.34
2018-08-06T18:50:15.645Z,99468.71
2018-08-06T18:52:45.638Z,99465.64
2018-08-06T18:55:15.248Z,99469.53
2018-08-06T18:57:44.912Z,99467.81
2018-08-06T19:00:18.324Z,99466.62
2018-08-06T19:02:47.686Z,99470.31
2018-08-06T19:05:16.908Z,99473.26
2018-08-06T19:07:45.835Z,99465.95
2018-08-06T19:10:17.101Z,99470.30
2018-08-06T19:12:50.887Z,99470.22
2018-08-06T19:15:19.801Z,99470.01
2018-08-06T19:17:53.668Z,99475.29
2018-08-06T19:20:22.975Z,99479.47
2018-08-06T19:22:51.765Z,99478.87
2018-08-06T19:25:25.577Z,99482.52
2018-08-06T19:27:54.459Z,99481.38
2018-08-06T19:30:27.450Z,99482.31
2018-08-06T19:32:56.444Z,99484.59
2018-08-06T19:35:25.406Z,99486.88
2018-08-06T19:37:56.340Z,99484.75
2018-08-06T19:40:25.513Z,99490.72
2018-08-06T19:42:59.561Z,99491.92
2018-08-06T19:45:28.436Z,99497.88
2018-08-06T19:47:57.299Z,99492.31
2018-08-06T19:50:31.142Z,99489.81
2018-08-06T19:53:00.967Z,99491.56
2018-08-06T19:55:34.824Z,99494.61
2018-08-06T19:58:03.769Z,99495.70
2018-08-06T20:00:32.711Z,99493.89
2018-08-06T20:03:01.535Z,99495.47
2018-08-06T20:05:30.449Z,99490.94
2018-08-06T20:07:59.317Z,99495.24
2018-08-06T20:10:28.151Z,99491.06
2018-08-06T20:12:57.312Z,99495.03
2018-08-06T20:15:26.284Z,99490.55
2018-08-06T20:17:55.257Z,99498.37
2018-08-06T20:20:25.278Z,99491.33
2018-08-06T20:22:54.188Z,99495.45
2018-08-06T20:25:29.928Z,99493.00
2018-08-06T20:27:59.780Z,99500.65
2018-08-06T20:30:28.808Z,99498.16
2018-08-06T20:32:58.226Z,99495.18
2018-08-06T20:35:27.409Z,99489.95
2018-08-06T20:37:56.635Z,99494.94
2018-08-06T20:40:26.645Z,99496.70
2018-08-06T20:42:55.931Z,99495.42
2018-08-06T20:45:25.847Z,99498.66
2018-08-06T20:47:55.584Z,99495.03
2018-08-06T20:50:25.133Z,99490.06
2018-08-06T20:52:54.805Z,99495.16
2018-08-06T20:55:23.952Z,99492.02
2018-08-06T20:57:53.559Z,99495.28
2018-08-06T21:00:27.035Z,99505.95
2018-08-06T21:02:55.832Z,99499.50
2018-08-06T21:05:24.668Z,99503.92
2018-08-06T21:07:53.384Z,99500.34
2018-08-06T21:10:22.327Z,99497.70
2018-08-06T21:12:51.160Z,99505.83
2018-08-06T21:15:19.925Z,99506.00
2018-08-06T21:17:48.852Z,99505.17
2018-08-06T21:20:18.836Z,99503.64
2018-08-06T21:22:48.572Z,99499.40
2018-08-06T21:25:17.484Z,99500.63
2018-08-06T21:27:47.398Z,99503.84
2018-08-06T21:30:19.060Z,99496.88
2018-08-06T21:32:52.121Z,99498.08
2018-08-06T21:35:21.896Z,99503.02
2018-08-06T21:37:51.928Z,99504.87
2018-08-06T21:40:21.628Z,99497.36
2018-08-06T21:42:50.994Z,99495.89
2018-08-06T21:45:20.232Z,99498.50
2018-08-06T21:47:49.466Z,99497.91
2018-08-06T21:50:18.427Z,99500.63
2018-08-06T21:52:47.625Z,99490.73
2018-08-06T21:55:16.732Z,99493.70
2018-08-06T21:57:45.741Z,99493.09
2018-08-06T22:00:25.729Z,99499.58
2018-08-06T22:02:54.517Z,99487.39
2018-08-06T22:05:23.269Z,99497.55
2018-08-06T22:07:52.085Z,99492.41
2018-08-06T22:10:20.989Z,99493.15
2018-08-06T22:12:49.788Z,99493.02
2018-08-06T22:15:18.748Z,99493.30
2018-08-06T22:17:47.530Z,99487.46
2018-08-06T22:20:16.385Z,99480.26
2018-08-06T22:22:45.170Z,99481.51
2018-08-06T22:25:14.037Z,99482.25
2018-08-06T22:27:42.818Z,99483.34
2018-08-06T22:30:12.122Z,99482.02
2018-08-06T22:32:40.909Z,99483.02
2018-08-06T22:35:11.586Z,99482.06
2018-08-06T22:37:40.636Z,99475.57
2018-08-06T22:40:11.047Z,99477.30
2018-08-06T22:42:40.187Z,99478.78
2018-08-06T22:45:10.000Z,99473.75
2018-08-06T22:47:38.782Z,99471.80
2018-08-06T22:50:09.166Z,99471.19
2018-08-06T22:52:37.954Z,99470.58
2018-08-06T22:55:07.136Z,99470.12
2018-08-06T22:57:35.742Z,99473.17
2018-08-06T23:00:05.333Z,99469.13
2018-08-06T23:02:33.976Z,99469.49
2018-08-06T23:05:02.671Z,99468.05
2018-08-06T23:07:31.395Z,99478.06
2018-08-06T23:10:00.130Z,99467.18
2018-08-06T23:12:28.811Z,99464.75
2018-08-06T23:14:57.512Z,99467.80
2018-08-06T23:17:26.091Z,99465.84
2018-08-06T23:19:54.841Z,99459.14
2018-08-06T23:22:23.836Z,99452.29
2018-08-06T23:24:52.512Z,99448.27
2018-08-06T23:27:21.127Z,99446.78
2018-08-06T23:29:49.880Z,99440.33
2018-08-06T23:32:18.605Z,99441.92
2018-08-06T23:34:47.300Z,99434.09
2018-08-06T23:37:16.131Z,99436.66
2018-08-06T23:39:44.793Z,99432.86
2018-08-06T23:42:13.504Z,99433.22
2018-08-06T23:44:42.228Z,99432.62
2018-08-06T23:47:10.871Z,99432.01
2018-08-06T23:49:39.669Z,99430.77
2018-08-06T23:52:08.373Z,99427.47
2018-08-06T23:54:37.028Z,99423.70
2018-08-06T23:57:05.927Z,99421.48
2018-08-06T23:59:34.589Z,99420.88
